CMB858 Details

Departure: Diego Garcia (FJDG)
Arrival: Bahrain International Airport (OBBI) at N/A
Route: BUMMR L516 KITAL P570 ITURA M762 VAXAS M762 MIVEK P574 RUKOR N571 TUDIS P699 IMGUX ULBEK Y001 LABOV EMISA B457 DENVO DENVO1
Notes: USTRANSCOM CONTRACT FLIGHT


Current Weather Information
FJDG 171755Z 09006KT 9999 FEW020 SCT250 28/26 A2986 RMK SLP108 8/102 T02790260 10301 20279 403120246 51007
OBBI 171800Z 32006KT CAVOK 35/22 Q0999 NOSIG